Flight Track Log - Related Links

Times and Time Zones

All times are in EDT time to prevent confusion due to time zone crossing. See the N682RW flight status page for this flight to view local times or setup timezone preferences in your user account.

Time Position Orientation Groundspeed Altitude Reporting Facility
EDT Latitude Longitude Course Direction KTS MPH feet Rate Location/Type
Sat 03:13:37 PM 33.4333 -112.0000 90° East 170 196 2,100  Level Phoenix TRACON
Sat 03:14:44 PM 33.4333 -111.9167 90° East 242 278 5,400 2,035 Climbing Phoenix TRACON
Sat 03:15:32 PM 33.4000 -111.8500 121° Southeast 284 327 6,000 409 Climbing Phoenix TRACON
Sat 03:16:12 PM 33.3558 -111.8758 206° Southwest 276 318 6,000  Level Albuquerque Center
Sat 03:17:14 PM 33.3556 -111.9736 270° West 271 312 6,000  Level Albuquerque Center
Sat 03:18:15 PM 33.3589 -112.0542 273° West 267 307 6,000  Level Albuquerque Center
Sat 03:19:15 PM 33.3447 -112.1494 260° West 276 318 6,000  Level Albuquerque Center
Sat 03:19:17 PM 33.3461 -112.1431 75° East 277 319 6,000  Level Albuquerque Center
Sat 03:20:16 PM 33.3203 -112.2394 252° West 271 312 6,000  Level Albuquerque Center
Sat 03:20:19 PM 33.3231 -112.2286 73° East 272 313 6,000  Level Albuquerque Center
Sat 03:21:17 PM 33.3008 -112.3208 254° West 224 258 6,000  Level Albuquerque Center
Sat 03:21:21 PM 33.3039 -112.3114 69° East 262 302 6,000 -100 Level Albuquerque Center
Sat 03:22:17 PM 33.2900 -112.3922 258° West 217 250 5,900  Descending Albuquerque Center
Sat 03:22:22 PM 33.2878 -112.3825 105° East 227 261 6,000 -1,527 Climbing Albuquerque Center
Sat 03:23:12 PM 33.3147 -112.4469 297° West 198 228 4,500 -1,839 Descending Albuquerque Center
Sat 03:23:24 PM 33.3211 -112.4553 313° West 206 237 4,100 -1,279 Descending Albuquerque Center
Sat 03:24:13 PM 33.3536 -112.4497 North 167 192 3,200 -1,065 Descending Albuquerque Center
Sat 03:24:26 PM 33.3572 -112.4386 69° East 166 191 3,000 -1,279 Descending Albuquerque Center
Sat 03:25:14 PM 33.3775 -112.4158 43° Northeast 126 145 1,900 -1,279 Descending Albuquerque Center
Sat 03:25:27 PM 33.3825 -112.4100 44° Northeast 140 161 1,700 -640 Descending Albuquerque Center
Sat 03:26:29 PM 33.4114 -112.3856 35° Northeast 129 148 1,100 -581 Descending Albuquerque Center

Login

Don't have an account? Register now (free) for customized features, flight alerts, and more!